Time;durP1;ratioP1;P1;durP2;ratioP2;P2;SDS_P1;SDS_P2;PMS_P1;PMS_P2;Temp;Humidity;BMP_temperature;BMP_pressure;BME280_temperature;BME280_humidity;BME280_pressure;Samples;Min_cycle;Max_cycle;Signal;HPM_P1;HPM_P2
2022/08/23 00:01:17;;;;;;;1.10;0.40;;;;;;;;;;5111669;28;20230;-63
2022/08/23 00:03:47;;;;;;;0.40;0.40;;;;;;;;;;5117797;28;20225;-63
2022/08/23 00:06:16;;;;;;;0.50;0.50;;;;;;;;;;5118887;28;20741;-63
2022/08/23 00:08:47;;;;;;;0.60;0.60;;;;;;;;;;5119790;28;20216;-63
2022/08/23 00:11:26;;;;;;;0.57;0.50;;;;;;;;;;5119054;28;20228;-63
2022/08/23 00:13:54;;;;;;;0.50;0.50;;;;;;;;;;5119573;28;20223;-63
2022/08/23 00:16:22;;;;;;;0.60;0.50;;;;;;;;;;5119017;28;20242;-63
2022/08/23 00:18:50;;;;;;;0.83;0.60;;;;;;;;;;5106641;28;20236;-63
2022/08/23 00:21:18;;;;;;;0.70;0.60;;;;;;;;;;5098888;28;20264;-63
2022/08/23 00:23:47;;;;;;;0.87;0.50;;;;;;;;;;5108612;28;20255;-63
2022/08/23 00:26:16;;;;;;;0.73;0.60;;;;;;;;;;5106237;28;20209;-63
2022/08/23 00:28:44;;;;;;;2.27;0.40;;;;;;;;;;5119606;28;20232;-62
2022/08/23 00:31:12;;;;;;;1.43;0.60;;;;;;;;;;5119490;28;20208;-62
2022/08/23 00:33:40;;;;;;;1.00;0.30;;;;;;;;;;5119360;28;20256;-62
2022/08/23 00:36:08;;;;;;;2.00;0.70;;;;;;;;;;5119380;28;20235;-62
2022/08/23 00:38:36;;;;;;;1.70;0.60;;;;;;;;;;5119288;28;20297;-62
2022/08/23 00:41:06;;;;;;;0.40;0.40;;;;;;;;;;5119008;28;20209;-61
2022/08/23 00:49:21;;;;;;;1.90;0.47;;;;;;;;;;5126378;27;20228;-62
2022/08/23 00:51:52;;;;;;;4.73;0.50;;;;;;;;;;5126036;27;20229;-62
2022/08/23 00:54:20;;;;;;;1.53;0.60;;;;;;;;;;5115503;27;20227;-61
2022/08/23 00:56:50;;;;;;;1.77;0.47;;;;;;;;;;5098483;28;20209;-62
2022/08/23 00:59:18;;;;;;;0.63;0.63;;;;;;;;;;5098455;28;20680;-61
2022/08/23 01:01:46;;;;;;;0.33;0.33;;;;;;;;;;5098111;28;20663;-62
2022/08/23 01:04:15;;;;;;;0.40;0.40;;;;;;;;;;5098164;28;20322;-63
2022/08/23 01:06:48;;;;;;;1.73;0.37;;;;;;;;;;5098209;28;20239;-62
2022/08/23 01:09:17;;;;;;;0.40;0.33;;;;;;;;;;5112731;27;20232;-61
2022/08/23 01:11:49;;;;;;;0.33;0.33;;;;;;;;;;5098148;28;20234;-61
2022/08/23 01:14:23;;;;;;;0.30;0.30;;;;;;;;;;5113542;28;20248;-61
2022/08/23 01:16:55;;;;;;;0.70;0.40;;;;;;;;;;5118423;28;20201;-61
2022/08/23 01:19:25;;;;;;;1.40;0.43;;;;;;;;;;5100593;28;20209;-61
2022/08/23 01:22:03;;;;;;;2.17;0.50;;;;;;;;;;5098068;28;20221;-61
2022/08/23 01:24:33;;;;;;;0.60;0.53;;;;;;;;;;5111516;28;20757;-61
2022/08/23 01:27:20;;;;;;;0.23;0.23;;;;;;;;;;5116144;28;20719;-61
2022/08/23 01:29:48;;;;;;;1.33;0.50;;;;;;;;;;5116469;28;20235;-61
2022/08/23 01:32:16;;;;;;;1.00;0.57;;;;;;;;;;5116554;28;20263;-60
2022/08/23 01:34:44;;;;;;;0.83;0.53;;;;;;;;;;5116573;28;20734;-61
2022/08/23 01:37:19;;;;;;;0.63;0.63;;;;;;;;;;5116789;28;20205;-61
2022/08/23 01:39:48;;;;;;;0.27;0.27;;;;;;;;;;5117913;28;20232;-61
2022/08/23 01:42:16;;;;;;;0.47;0.47;;;;;;;;;;5118106;28;20307;-61
2022/08/23 01:44:44;;;;;;;0.30;0.30;;;;;;;;;;5118221;28;20232;-61
2022/08/23 01:47:12;;;;;;;0.77;0.43;;;;;;;;;;5118363;28;20232;-61
2022/08/23 01:49:40;;;;;;;0.50;0.50;;;;;;;;;;5118357;28;20287;-61
2022/08/23 01:52:08;;;;;;;1.63;0.80;;;;;;;;;;5118083;28;20264;-61
2022/08/23 01:54:36;;;;;;;0.43;0.43;;;;;;;;;;5117904;28;20263;-61
2022/08/23 01:57:07;;;;;;;0.50;0.40;;;;;;;;;;5118530;28;20240;-61
2022/08/23 01:59:35;;;;;;;0.40;0.40;;;;;;;;;;5118261;28;20244;-61
2022/08/23 02:02:03;;;;;;;0.70;0.50;;;;;;;;;;5118282;28;20209;-61
2022/08/23 02:04:31;;;;;;;0.50;0.50;;;;;;;;;;5118050;28;20225;-61
2022/08/23 02:06:59;;;;;;;0.43;0.43;;;;;;;;;;5118213;28;20299;-61
2022/08/23 02:09:27;;;;;;;0.27;0.27;;;;;;;;;;5117992;28;20240;-61
2022/08/23 02:11:55;;;;;;;0.30;0.30;;;;;;;;;;5118008;28;20212;-61
2022/08/23 02:14:25;;;;;;;0.37;0.33;;;;;;;;;;5117683;28;20662;-61
2022/08/23 02:16:54;;;;;;;0.50;0.50;;;;;;;;;;5118032;28;20224;-62
2022/08/23 02:19:30;;;;;;;0.53;0.50;;;;;;;;;;5099167;28;20205;-61
2022/08/23 02:21:58;;;;;;;0.67;0.50;;;;;;;;;;5097357;28;20231;-61
2022/08/23 02:24:26;;;;;;;0.30;0.30;;;;;;;;;;5112370;28;20267;-61
2022/08/23 02:26:56;;;;;;;0.47;0.37;;;;;;;;;;5117908;28;20206;-61
2022/08/23 02:29:28;;;;;;;1.50;0.37;;;;;;;;;;5117993;28;20235;-61
2022/08/23 02:31:57;;;;;;;0.53;0.40;;;;;;;;;;5117921;28;20204;-61
2022/08/23 02:34:27;;;;;;;1.60;0.40;;;;;;;;;;5117990;28;20224;-61
2022/08/23 02:36:55;;;;;;;0.70;0.50;;;;;;;;;;5117843;28;20235;-61
2022/08/23 02:39:23;;;;;;;0.30;0.30;;;;;;;;;;5119880;28;20232;-61
2022/08/23 02:41:52;;;;;;;0.30;0.30;;;;;;;;;;5121357;27;20211;-61
2022/08/23 02:44:20;;;;;;;0.30;0.30;;;;;;;;;;5121396;28;20262;-61
2022/08/23 02:46:50;;;;;;;0.53;0.53;;;;;;;;;;5121232;28;20659;-61
2022/08/23 02:49:20;;;;;;;0.97;0.60;;;;;;;;;;5121503;28;20214;-61
2022/08/23 02:51:48;;;;;;;1.00;0.90;;;;;;;;;;5121007;28;20769;-61
2022/08/23 02:54:15;;;;;;;0.80;0.80;;;;;;;;;;5121133;28;20268;-61
2022/08/23 02:56:43;;;;;;;1.90;1.30;;;;;;;;;;5121351;28;20206;-61
2022/08/23 02:59:13;;;;;;;2.83;1.20;;;;;;;;;;5121342;28;20233;-61
2022/08/23 03:01:41;;;;;;;0.70;0.70;;;;;;;;;;5121223;28;20288;-61
2022/08/23 03:04:11;;;;;;;1.13;0.80;;;;;;;;;;5121116;28;20231;-61
2022/08/23 03:06:38;;;;;;;0.93;0.80;;;;;;;;;;5121105;28;20238;-61
2022/08/23 03:09:07;;;;;;;0.63;0.63;;;;;;;;;;5121277;28;20298;-61
2022/08/23 03:11:35;;;;;;;1.20;0.80;;;;;;;;;;5120475;28;20558;-61
2022/08/23 03:14:03;;;;;;;1.87;0.90;;;;;;;;;;5121004;28;20235;-61
2022/08/23 03:16:32;;;;;;;1.90;0.47;;;;;;;;;;5107413;28;20207;-61
2022/08/23 03:19:01;;;;;;;1.93;0.70;;;;;;;;;;5106615;28;20250;-61
2022/08/23 03:21:30;;;;;;;0.97;0.60;;;;;;;;;;5100371;28;20637;-61
2022/08/23 03:23:59;;;;;;;0.60;0.60;;;;;;;;;;5111254;28;20733;-61
2022/08/23 03:26:27;;;;;;;0.60;0.60;;;;;;;;;;5118405;28;20238;-61
2022/08/23 03:28:55;;;;;;;0.60;0.60;;;;;;;;;;5106934;28;20280;-61
2022/08/23 03:31:24;;;;;;;1.47;1.00;;;;;;;;;;5119746;28;20207;-61
2022/08/23 03:33:55;;;;;;;2.23;1.97;;;;;;;;;;5119617;28;20347;-61
2022/08/23 03:36:23;;;;;;;3.97;2.73;;;;;;;;;;5120178;28;20201;-61
2022/08/23 03:38:56;;;;;;;4.50;3.40;;;;;;;;;;5120537;28;20218;-61
2022/08/23 03:41:24;;;;;;;5.43;4.30;;;;;;;;;;5120176;28;20212;-61
2022/08/23 03:43:52;;;;;;;8.57;5.83;;;;;;;;;;5120087;28;20261;-61
2022/08/23 03:46:23;;;;;;;4.30;3.90;;;;;;;;;;5119843;28;20246;-61
2022/08/23 03:48:51;;;;;;;4.30;3.50;;;;;;;;;;5120198;28;20246;-61
2022/08/23 03:51:19;;;;;;;2.93;2.63;;;;;;;;;;5118650;28;20318;-61
2022/08/23 03:53:48;;;;;;;3.20;2.43;;;;;;;;;;5119628;28;20589;-61
2022/08/23 03:56:24;;;;;;;2.20;2.00;;;;;;;;;;5119880;28;20208;-61
2022/08/23 03:58:53;;;;;;;4.40;1.97;;;;;;;;;;5117990;28;20639;-61
2022/08/23 04:01:21;;;;;;;2.60;1.50;;;;;;;;;;5118258;27;20238;-61
2022/08/23 04:03:58;;;;;;;1.70;1.60;;;;;;;;;;5117686;28;20313;-61
2022/08/23 04:06:26;;;;;;;1.50;1.40;;;;;;;;;;5117935;28;20654;-61
2022/08/23 04:08:54;;;;;;;2.70;1.30;;;;;;;;;;5117765;28;20649;-61
2022/08/23 04:11:24;;;;;;;4.23;2.30;;;;;;;;;;5117715;28;20254;-61
2022/08/23 04:13:52;;;;;;;1.83;1.10;;;;;;;;;;5119082;28;20223;-61
2022/08/23 04:16:20;;;;;;;1.10;1.00;;;;;;;;;;5119734;27;20203;-61
2022/08/23 04:18:48;;;;;;;1.00;0.90;;;;;;;;;;5107634;28;20212;-61
2022/08/23 04:21:17;;;;;;;0.80;0.80;;;;;;;;;;5099014;28;20266;-61
2022/08/23 04:23:45;;;;;;;1.00;0.63;;;;;;;;;;5108435;28;20263;-61
2022/08/23 04:26:13;;;;;;;1.27;0.80;;;;;;;;;;5119221;28;20235;-61
2022/08/23 04:28:43;;;;;;;0.80;0.70;;;;;;;;;;5119653;28;20202;-61
2022/08/23 04:31:11;;;;;;;2.50;0.80;;;;;;;;;;5119258;28;20577;-61
2022/08/23 04:33:39;;;;;;;1.00;0.70;;;;;;;;;;5119380;28;20259;-61
2022/08/23 04:36:07;;;;;;;0.60;0.60;;;;;;;;;;5119505;28;20263;-61
2022/08/23 04:38:35;;;;;;;3.60;1.00;;;;;;;;;;5119048;28;20206;-61
2022/08/23 04:43:50;;;;;;;0.70;0.70;;;;;;;;;;5118805;28;20262;-61
2022/08/23 04:46:18;;;;;;;0.70;0.70;;;;;;;;;;5118945;28;20239;-61
2022/08/23 04:48:47;;;;;;;1.23;0.70;;;;;;;;;;5119215;28;20235;-61
2022/08/23 04:51:15;;;;;;;1.20;0.70;;;;;;;;;;5118960;27;20308;-61
2022/08/23 04:53:43;;;;;;;5.43;1.00;;;;;;;;;;5118964;28;20259;-61
2022/08/23 04:56:11;;;;;;;0.80;0.80;;;;;;;;;;5118642;28;20212;-61
2022/08/23 04:58:40;;;;;;;2.43;0.57;;;;;;;;;;5118792;28;20245;-61
2022/08/23 05:01:09;;;;;;;2.57;0.80;;;;;;;;;;5118657;28;20293;-61
2022/08/23 05:03:38;;;;;;;1.60;0.83;;;;;;;;;;5118511;28;20280;-61
2022/08/23 05:06:06;;;;;;;0.77;0.77;;;;;;;;;;5118600;28;20255;-61
2022/08/23 05:08:34;;;;;;;1.57;1.00;;;;;;;;;;5118857;27;20239;-61
2022/08/23 05:11:03;;;;;;;1.17;1.07;;;;;;;;;;5118485;28;20244;-61
2022/08/23 05:13:31;;;;;;;1.17;0.90;;;;;;;;;;5118531;28;20261;-61
2022/08/23 05:16:01;;;;;;;0.60;0.60;;;;;;;;;;5118475;28;20564;-61
2022/08/23 05:18:32;;;;;;;5.57;0.90;;;;;;;;;;5109034;28;20211;-61
2022/08/23 05:21:00;;;;;;;0.70;0.70;;;;;;;;;;5098347;28;20207;-61
2022/08/23 05:23:28;;;;;;;3.80;1.20;;;;;;;;;;5104917;28;20263;-61
2022/08/23 05:25:59;;;;;;;3.67;1.00;;;;;;;;;;5117935;28;20227;-61
2022/08/23 05:28:28;;;;;;;0.97;0.80;;;;;;;;;;5118304;28;20225;-61
2022/08/23 05:30:58;;;;;;;0.97;0.87;;;;;;;;;;5118437;28;20243;-61
2022/08/23 05:33:29;;;;;;;6.30;0.97;;;;;;;;;;5118439;28;20239;-61
2022/08/23 05:35:58;;;;;;;3.27;0.90;;;;;;;;;;5118208;28;20246;-61
2022/08/23 05:38:26;;;;;;;4.63;1.00;;;;;;;;;;5118253;28;20246;-61
2022/08/23 05:40:56;;;;;;;1.10;0.80;;;;;;;;;;5117819;28;20228;-61
2022/08/23 05:43:26;;;;;;;2.70;0.90;;;;;;;;;;5118436;28;20228;-61
2022/08/23 05:45:59;;;;;;;1.07;0.77;;;;;;;;;;5118131;28;20717;-61
2022/08/23 05:48:28;;;;;;;2.07;0.70;;;;;;;;;;5118153;28;20287;-61
2022/08/23 05:50:58;;;;;;;2.23;0.80;;;;;;;;;;5118114;28;20270;-61
2022/08/23 05:53:26;;;;;;;1.27;0.77;;;;;;;;;;5118139;28;20259;-61
2022/08/23 05:55:53;;;;;;;1.77;0.60;;;;;;;;;;5117994;28;20243;-60
2022/08/23 05:58:21;;;;;;;0.50;0.50;;;;;;;;;;5118227;28;20250;-61
2022/08/23 06:00:49;;;;;;;2.40;0.70;;;;;;;;;;5118314;28;20362;-61
2022/08/23 06:03:17;;;;;;;1.40;0.80;;;;;;;;;;5117847;28;20679;-61
2022/08/23 06:05:46;;;;;;;1.03;0.70;;;;;;;;;;5118274;28;20264;-60
2022/08/23 06:08:15;;;;;;;1.20;0.67;;;;;;;;;;5118132;28;20238;-60
2022/08/23 06:10:43;;;;;;;2.90;0.97;;;;;;;;;;5117540;28;20329;-61
2022/08/23 06:13:11;;;;;;;0.40;0.40;;;;;;;;;;5118478;28;20264;-61
2022/08/23 06:15:42;;;;;;;1.77;1.07;;;;;;;;;;5122226;28;20245;-61
2022/08/23 06:18:12;;;;;;;1.20;0.87;;;;;;;;;;5115160;27;20207;-61
2022/08/23 06:20:40;;;;;;;2.83;0.67;;;;;;;;;;5101558;28;20240;-60
2022/08/23 06:23:09;;;;;;;1.37;0.63;;;;;;;;;;5105662;28;20232;-61
2022/08/23 06:25:40;;;;;;;1.27;0.67;;;;;;;;;;5121528;28;20232;-61
2022/08/23 06:28:08;;;;;;;1.30;0.73;;;;;;;;;;5121701;28;20695;-60
2022/08/23 06:30:38;;;;;;;2.43;0.60;;;;;;;;;;5121542;28;20279;-61
2022/08/23 06:33:06;;;;;;;0.70;0.70;;;;;;;;;;5121457;28;20568;-61
2022/08/23 06:35:35;;;;;;;0.73;0.60;;;;;;;;;;5121333;28;20672;-61
2022/08/23 06:38:06;;;;;;;2.87;0.60;;;;;;;;;;5121609;28;20687;-60
2022/08/23 06:40:35;;;;;;;1.13;0.90;;;;;;;;;;5121448;28;20232;-61
2022/08/23 06:43:05;;;;;;;1.00;0.80;;;;;;;;;;5121266;28;20233;-61
2022/08/23 06:45:33;;;;;;;1.17;0.43;;;;;;;;;;5121606;28;20309;-61
2022/08/23 06:48:02;;;;;;;1.87;0.83;;;;;;;;;;5121306;28;20209;-61
2022/08/23 06:50:30;;;;;;;0.57;0.50;;;;;;;;;;5121429;28;20280;-61
2022/08/23 06:52:59;;;;;;;0.53;0.53;;;;;;;;;;5121078;28;20664;-61
2022/08/23 06:55:27;;;;;;;2.37;0.73;;;;;;;;;;5120756;28;20698;-61
2022/08/23 06:57:55;;;;;;;0.60;0.60;;;;;;;;;;5121017;28;20237;-61
2022/08/23 07:00:25;;;;;;;2.07;0.67;;;;;;;;;;5121096;28;20202;-61
2022/08/23 07:02:53;;;;;;;0.50;0.50;;;;;;;;;;5121005;28;20656;-61
2022/08/23 07:05:21;;;;;;;1.47;0.93;;;;;;;;;;5121154;28;20267;-61
2022/08/23 07:07:49;;;;;;;1.53;0.63;;;;;;;;;;5120862;28;20208;-61
2022/08/23 07:10:17;;;;;;;1.47;0.53;;;;;;;;;;5120520;28;20243;-61
2022/08/23 07:12:45;;;;;;;0.60;0.60;;;;;;;;;;5120605;28;20633;-61
2022/08/23 07:15:13;;;;;;;1.07;0.60;;;;;;;;;;5121169;28;20219;-61
2022/08/23 07:17:43;;;;;;;1.17;0.50;;;;;;;;;;5117919;28;20235;-61
2022/08/23 07:20:11;;;;;;;1.47;0.77;;;;;;;;;;5100548;28;20205;-61
2022/08/23 07:22:39;;;;;;;0.97;0.70;;;;;;;;;;5100363;28;20235;-61
2022/08/23 07:25:07;;;;;;;2.57;0.80;;;;;;;;;;5120041;28;20270;-62
2022/08/23 07:27:35;;;;;;;1.13;0.77;;;;;;;;;;5120446;28;20678;-61
2022/08/23 07:30:05;;;;;;;0.97;0.87;;;;;;;;;;5120530;28;20575;-60
2022/08/23 07:32:33;;;;;;;0.70;0.70;;;;;;;;;;5120522;28;20210;-61
2022/08/23 07:35:02;;;;;;;1.40;1.07;;;;;;;;;;5116734;28;20265;-61
2022/08/23 07:37:30;;;;;;;1.00;0.90;;;;;;;;;;5119420;28;20204;-61
2022/08/23 07:39:58;;;;;;;0.60;0.60;;;;;;;;;;5118276;28;20208;-61
2022/08/23 07:42:26;;;;;;;1.57;0.67;;;;;;;;;;5118505;28;20215;-61
2022/08/23 07:44:54;;;;;;;0.50;0.50;;;;;;;;;;5118375;28;20266;-61
2022/08/23 07:47:23;;;;;;;0.70;0.70;;;;;;;;;;5118341;28;20636;-61
2022/08/23 07:49:51;;;;;;;1.20;0.70;;;;;;;;;;5118418;28;20235;-61
2022/08/23 07:52:20;;;;;;;2.93;0.70;;;;;;;;;;5117910;27;20231;-61
2022/08/23 07:54:48;;;;;;;1.63;1.50;;;;;;;;;;5118339;28;20230;-60
2022/08/23 07:57:17;;;;;;;2.00;0.80;;;;;;;;;;5119804;28;20214;-61
2022/08/23 07:59:45;;;;;;;0.80;0.80;;;;;;;;;;5120127;28;20207;-61
2022/08/23 08:02:13;;;;;;;0.83;0.70;;;;;;;;;;5119945;28;20211;-61
2022/08/23 08:04:41;;;;;;;1.07;0.67;;;;;;;;;;5118913;28;20224;-61
2022/08/23 08:07:09;;;;;;;1.20;0.73;;;;;;;;;;5118051;28;20231;-61
2022/08/23 08:09:48;;;;;;;2.37;0.77;;;;;;;;;;5117731;28;20729;-61
2022/08/23 08:12:16;;;;;;;1.23;0.70;;;;;;;;;;5117564;28;20275;-61
2022/08/23 08:14:44;;;;;;;1.83;0.67;;;;;;;;;;5117749;28;20223;-61
2022/08/23 08:17:12;;;;;;;1.50;1.03;;;;;;;;;;5117816;28;20205;-61
2022/08/23 08:19:41;;;;;;;2.40;0.70;;;;;;;;;;5098154;28;20223;-61
2022/08/23 08:22:09;;;;;;;0.70;0.70;;;;;;;;;;5098961;28;20578;-61
2022/08/23 08:24:37;;;;;;;3.27;0.80;;;;;;;;;;5115564;28;20222;-61
2022/08/23 08:27:07;;;;;;;0.50;0.50;;;;;;;;;;5119244;28;20258;-61
2022/08/23 08:29:35;;;;;;;1.70;0.80;;;;;;;;;;5119407;28;20708;-61
2022/08/23 08:32:03;;;;;;;0.90;0.80;;;;;;;;;;5119498;28;20238;-61
2022/08/23 08:34:31;;;;;;;0.70;0.70;;;;;;;;;;5119087;28;20228;-61
2022/08/23 08:36:59;;;;;;;1.13;0.80;;;;;;;;;;5118522;28;20253;-61
2022/08/23 08:39:28;;;;;;;1.80;0.87;;;;;;;;;;5119079;28;20201;-61
2022/08/23 08:42:03;;;;;;;1.53;0.70;;;;;;;;;;5119107;28;20216;-61
2022/08/23 08:44:38;;;;;;;0.83;0.80;;;;;;;;;;5118954;28;20589;-61
2022/08/23 08:47:08;;;;;;;1.70;0.90;;;;;;;;;;5119035;28;20279;-61
2022/08/23 08:49:40;;;;;;;0.70;0.70;;;;;;;;;;5119016;28;20685;-61
2022/08/23 08:52:13;;;;;;;0.77;0.77;;;;;;;;;;5105242;28;20280;-60
2022/08/23 08:54:42;;;;;;;1.50;0.70;;;;;;;;;;5118581;28;20226;-61
2022/08/23 08:57:16;;;;;;;1.27;0.87;;;;;;;;;;5118888;28;20209;-61
2022/08/23 08:59:55;;;;;;;1.70;0.80;;;;;;;;;;5118735;28;20697;-61
2022/08/23 09:02:24;;;;;;;1.77;0.87;;;;;;;;;;5118979;28;20207;-61
2022/08/23 09:05:01;;;;;;;1.03;0.77;;;;;;;;;;5118524;28;20759;-61
2022/08/23 09:07:36;;;;;;;1.50;1.00;;;;;;;;;;5118525;28;20657;-61
2022/08/23 09:10:15;;;;;;;1.27;1.13;;;;;;;;;;5118382;28;20651;-61
2022/08/23 09:12:48;;;;;;;4.27;1.10;;;;;;;;;;5118526;28;20244;-61
2022/08/23 09:15:21;;;;;;;2.13;0.80;;;;;;;;;;5118826;28;20239;-61
2022/08/23 09:17:50;;;;;;;1.60;0.70;;;;;;;;;;5114732;28;20201;-61
2022/08/23 09:20:19;;;;;;;1.20;1.00;;;;;;;;;;5098544;28;20242;-61
2022/08/23 09:22:50;;;;;;;0.50;0.50;;;;;;;;;;5099264;28;20675;-61
2022/08/23 09:25:20;;;;;;;1.13;1.00;;;;;;;;;;5118011;28;20208;-61
2022/08/23 09:27:48;;;;;;;2.00;0.90;;;;;;;;;;5118603;28;20257;-61
2022/08/23 09:30:17;;;;;;;1.90;0.80;;;;;;;;;;5118626;28;20206;-61
2022/08/23 09:32:49;;;;;;;2.60;0.97;;;;;;;;;;5118541;28;20241;-61
2022/08/23 09:35:18;;;;;;;1.40;0.90;;;;;;;;;;5118366;28;20239;-61
2022/08/23 09:37:48;;;;;;;0.70;0.70;;;;;;;;;;5118208;28;20232;-61
2022/08/23 09:40:17;;;;;;;5.60;1.20;;;;;;;;;;5117701;28;20709;-61
2022/08/23 09:42:46;;;;;;;4.07;1.10;;;;;;;;;;5118103;28;20246;-61
2022/08/23 09:45:25;;;;;;;5.90;1.00;;;;;;;;;;5118246;28;20248;-61
2022/08/23 09:47:56;;;;;;;1.53;0.83;;;;;;;;;;5118192;28;20230;-61
2022/08/23 09:50:26;;;;;;;1.60;0.97;;;;;;;;;;5122186;27;20775;-62
2022/08/23 09:52:59;;;;;;;1.17;1.03;;;;;;;;;;5122503;28;20213;-61
2022/08/23 09:55:33;;;;;;;0.80;0.80;;;;;;;;;;5122024;28;20310;-60
2022/08/23 09:58:03;;;;;;;3.07;0.97;;;;;;;;;;5122532;28;20201;-61
2022/08/23 10:00:33;;;;;;;0.90;0.77;;;;;;;;;;5122285;27;20574;-61
2022/08/23 10:03:26;;;;;;;0.83;0.80;;;;;;;;;;5122545;28;20222;-62
2022/08/23 10:05:55;;;;;;;4.13;1.50;;;;;;;;;;5122475;28;20237;-61
2022/08/23 10:08:24;;;;;;;1.50;1.10;;;;;;;;;;5122249;28;20261;-62
2022/08/23 10:10:53;;;;;;;1.10;0.80;;;;;;;;;;5121831;28;20238;-62
2022/08/23 10:13:22;;;;;;;1.50;1.00;;;;;;;;;;5122108;28;20269;-62
2022/08/23 10:15:54;;;;;;;3.50;0.97;;;;;;;;;;5121867;28;20579;-62
2022/08/23 10:18:28;;;;;;;1.63;0.90;;;;;;;;;;5113642;28;20256;-62
2022/08/23 10:20:59;;;;;;;2.00;0.90;;;;;;;;;;5101597;28;20238;-62
2022/08/23 10:23:36;;;;;;;1.33;0.90;;;;;;;;;;5108127;28;20726;-62
2022/08/23 10:26:07;;;;;;;3.57;1.10;;;;;;;;;;5121359;28;20664;-62
2022/08/23 10:31:30;;;;;;;3.37;1.30;;;;;;;;;;5122206;28;20203;-61
2022/08/23 10:34:03;;;;;;;3.03;0.80;;;;;;;;;;5121717;28;20233;-62
2022/08/23 10:36:41;;;;;;;1.17;0.70;;;;;;;;;;5121654;28;20209;-62
2022/08/23 10:39:16;;;;;;;4.47;0.93;;;;;;;;;;5121492;28;20212;-62
2022/08/23 10:41:50;;;;;;;2.47;1.13;;;;;;;;;;5121287;28;20246;-62
2022/08/23 10:44:22;;;;;;;1.38;1.23;;;;;;;;;;5121599;28;20260;-62
2022/08/23 10:46:56;;;;;;;4.27;1.27;;;;;;;;;;5121451;28;20262;-62
2022/08/23 10:49:26;;;;;;;0.70;0.70;;;;;;;;;;5121817;28;20228;-61
2022/08/23 10:51:56;;;;;;;1.20;1.10;;;;;;;;;;5121173;28;20237;-62
2022/08/23 10:54:33;;;;;;;1.03;0.80;;;;;;;;;;5120794;28;20635;-62
2022/08/23 10:57:02;;;;;;;5.97;1.57;;;;;;;;;;5121302;28;20228;-62
2022/08/23 10:59:32;;;;;;;1.07;0.73;;;;;;;;;;5120872;28;20208;-62
2022/08/23 11:02:02;;;;;;;0.90;0.70;;;;;;;;;;5107800;28;20234;-62
2022/08/23 11:04:34;;;;;;;2.15;1.00;;;;;;;;;;5120850;28;20258;-62
2022/08/23 11:07:14;;;;;;;2.38;0.90;;;;;;;;;;5120841;28;20691;-62
2022/08/23 11:09:53;;;;;;;4.13;1.08;;;;;;;;;;5120724;28;20204;-62
2022/08/23 11:12:26;;;;;;;2.20;1.05;;;;;;;;;;5120938;28;20233;-62
2022/08/23 11:15:12;;;;;;;1.30;1.10;;;;;;;;;;5107388;28;20265;-62
2022/08/23 11:17:54;;;;;;;1.85;0.70;;;;;;;;;;5117857;28;20230;-62
2022/08/23 11:20:41;;;;;;;2.60;0.75;;;;;;;;;;5100418;28;20237;-62
2022/08/23 11:23:14;;;;;;;3.38;1.20;;;;;;;;;;5104186;28;20268;-61
2022/08/23 11:25:44;;;;;;;1.17;1.00;;;;;;;;;;5120434;28;20242;-62
2022/08/23 11:28:33;;;;;;;1.90;1.10;;;;;;;;;;5120392;28;20570;-62
2022/08/23 11:31:18;;;;;;;0.93;0.70;;;;;;;;;;5115485;28;20200;-62
2022/08/23 11:33:47;;;;;;;0.77;0.77;;;;;;;;;;5120435;28;20228;-62
2022/08/23 11:36:17;;;;;;;4.50;1.55;;;;;;;;;;5104811;27;20573;-62
2022/08/23 11:39:03;;;;;;;1.70;0.90;;;;;;;;;;5119445;28;20201;-62
2022/08/23 11:41:33;;;;;;;0.98;0.88;;;;;;;;;;5119037;28;20653;-61
2022/08/23 11:44:19;;;;;;;2.65;1.15;;;;;;;;;;5120007;28;20734;-62
2022/08/23 11:46:58;;;;;;;0.88;0.88;;;;;;;;;;5110057;28;20670;-62
2022/08/23 11:49:38;;;;;;;2.80;1.27;;;;;;;;;;5120073;28;20235;-62
2022/08/23 11:52:11;;;;;;;3.35;1.30;;;;;;;;;;5119348;28;20710;-62
2022/08/23 11:54:54;;;;;;;1.52;1.08;;;;;;;;;;5119597;28;20294;-62
2022/08/23 11:57:31;;;;;;;0.90;0.80;;;;;;;;;;5117340;28;20259;-62
2022/08/23 12:00:05;;;;;;;1.02;0.82;;;;;;;;;;5119776;28;20202;-62
2022/08/23 12:02:40;;;;;;;1.88;1.20;;;;;;;;;;5119454;28;20657;-62
2022/08/23 12:05:19;;;;;;;1.10;1.00;;;;;;;;;;5119803;28;20237;-63
2022/08/23 12:07:51;;;;;;;1.98;1.48;;;;;;;;;;5116195;28;20326;-62
2022/08/23 12:10:23;;;;;;;1.80;1.10;;;;;;;;;;5117741;28;20202;-62
2022/08/23 12:13:06;;;;;;;2.20;1.05;;;;;;;;;;5115189;28;20252;-62
2022/08/23 12:15:59;;;;;;;1.60;0.88;;;;;;;;;;5119277;28;20235;-63
2022/08/23 12:18:30;;;;;;;2.75;0.95;;;;;;;;;;5117735;28;20193;-62
2022/08/23 12:20:59;;;;;;;1.73;1.08;;;;;;;;;;5119170;28;20227;-62
2022/08/23 12:23:27;;;;;;;1.53;1.20;;;;;;;;;;5115648;28;20227;-62
2022/08/23 12:26:06;;;;;;;1.50;1.30;;;;;;;;;;5116244;28;20241;-62
2022/08/23 12:28:41;;;;;;;1.93;1.00;;;;;;;;;;5119042;27;20689;-62
2022/08/23 12:31:14;;;;;;;4.55;1.60;;;;;;;;;;5119069;28;20233;-62
2022/08/23 12:33:52;;;;;;;1.50;1.00;;;;;;;;;;5119072;28;20224;-62
2022/08/23 12:36:24;;;;;;;1.80;1.05;;;;;;;;;;5119437;28;20217;-63
2022/08/23 12:38:57;;;;;;;3.67;1.10;;;;;;;;;;5118871;28;20761;-62
2022/08/23 12:41:27;;;;;;;1.20;1.10;;;;;;;;;;5119155;28;20204;-62
2022/08/23 12:44:00;;;;;;;3.25;1.30;;;;;;;;;;5119105;28;20224;-62
2022/08/23 12:46:30;;;;;;;3.83;1.42;;;;;;;;;;5118883;27;20216;-62
2022/08/23 12:48:59;;;;;;;2.55;1.40;;;;;;;;;;5105452;28;20235;-62
2022/08/23 12:51:27;;;;;;;2.80;1.40;;;;;;;;;;5118530;28;20270;-62
2022/08/23 12:53:55;;;;;;;1.60;1.33;;;;;;;;;;5118449;28;20258;-62
2022/08/23 12:56:25;;;;;;;2.05;1.13;;;;;;;;;;5118610;28;20642;-62
2022/08/23 12:59:02;;;;;;;1.30;1.20;;;;;;;;;;5118727;28;20208;-61
2022/08/23 13:01:32;;;;;;;2.25;1.30;;;;;;;;;;5118622;28;20212;-61
2022/08/23 13:04:03;;;;;;;1.48;1.25;;;;;;;;;;5118512;28;20270;-61
2022/08/23 13:06:34;;;;;;;1.42;1.20;;;;;;;;;;5118891;28;20239;-61
2022/08/23 13:09:07;;;;;;;1.67;1.00;;;;;;;;;;5118391;28;20231;-61
2022/08/23 13:11:36;;;;;;;2.38;1.42;;;;;;;;;;5118489;28;20235;-61
2022/08/23 13:14:18;;;;;;;1.73;1.20;;;;;;;;;;5118175;28;20258;-61
2022/08/23 13:16:46;;;;;;;1.95;1.30;;;;;;;;;;5111137;28;20238;-61
2022/08/23 13:19:18;;;;;;;1.13;1.10;;;;;;;;;;5097076;28;20207;-61
2022/08/23 13:21:46;;;;;;;1.20;1.05;;;;;;;;;;5096284;28;20211;-61
2022/08/23 13:24:28;;;;;;;1.52;1.00;;;;;;;;;;5111176;28;20266;-61
2022/08/23 13:27:26;;;;;;;1.85;0.95;;;;;;;;;;5117946;28;20226;-62
2022/08/23 13:30:18;;;;;;;3.35;1.10;;;;;;;;;;5117158;28;21089;-61
2022/08/23 13:32:47;;;;;;;4.18;1.30;;;;;;;;;;5118159;28;20207;-61
2022/08/23 13:35:24;;;;;;;2.33;1.02;;;;;;;;;;5117746;28;20623;-61
2022/08/23 13:37:53;;;;;;;3.40;1.30;;;;;;;;;;5118075;28;20255;-61
2022/08/23 13:40:24;;;;;;;2.30;1.23;;;;;;;;;;5117721;28;20265;-63
2022/08/23 13:42:55;;;;;;;2.65;1.25;;;;;;;;;;5117873;28;20204;-63
2022/08/23 13:45:25;;;;;;;2.20;1.10;;;;;;;;;;5118112;28;20295;-61
2022/08/23 13:47:56;;;;;;;2.65;1.20;;;;;;;;;;5115999;28;20617;-63
2022/08/23 13:50:26;;;;;;;1.38;1.10;;;;;;;;;;5115897;28;20240;-63
2022/08/23 13:52:54;;;;;;;1.42;1.17;;;;;;;;;;5115986;28;20243;-63
2022/08/23 13:55:43;;;;;;;5.18;1.20;;;;;;;;;;5115803;28;20230;-63
2022/08/23 13:58:12;;;;;;;4.57;1.10;;;;;;;;;;5115982;28;20703;-63
2022/08/23 14:00:41;;;;;;;1.40;0.90;;;;;;;;;;5116572;28;20204;-63
2022/08/23 14:03:22;;;;;;;2.83;1.60;;;;;;;;;;5117745;28;20220;-62
2022/08/23 14:05:52;;;;;;;2.78;1.20;;;;;;;;;;5118036;28;20201;-62
2022/08/23 14:08:20;;;;;;;1.45;1.00;;;;;;;;;;5117897;28;20200;-62
2022/08/23 14:10:48;;;;;;;2.50;1.15;;;;;;;;;;5117657;28;20253;-62
2022/08/23 14:13:17;;;;;;;1.85;1.38;;;;;;;;;;5117880;28;20224;-62
2022/08/23 14:15:45;;;;;;;1.95;1.50;;;;;;;;;;5117663;28;20205;-62
2022/08/23 14:18:23;;;;;;;1.70;1.50;;;;;;;;;;5106200;28;20241;-62
2022/08/23 14:20:53;;;;;;;1.08;1.08;;;;;;;;;;5118032;28;20205;-62
2022/08/23 14:23:21;;;;;;;1.10;1.00;;;;;;;;;;5117849;28;20277;-62
2022/08/23 14:25:51;;;;;;;1.63;1.02;;;;;;;;;;5100134;28;20714;-62
2022/08/23 14:28:19;;;;;;;4.03;1.10;;;;;;;;;;5097560;28;20225;-62
2022/08/23 14:30:47;;;;;;;4.43;1.27;;;;;;;;;;5097299;28;20239;-62
2022/08/23 14:33:15;;;;;;;1.15;0.93;;;;;;;;;;5097239;28;20282;-62
2022/08/23 14:35:43;;;;;;;2.53;1.20;;;;;;;;;;5100211;28;20225;-62
2022/08/23 14:38:13;;;;;;;3.40;1.10;;;;;;;;;;5101323;28;20212;-63
2022/08/23 14:40:47;;;;;;;2.03;1.27;;;;;;;;;;5100610;28;20209;-62
2022/08/23 14:43:15;;;;;;;1.83;1.00;;;;;;;;;;5100796;28;20272;-61
2022/08/23 14:45:43;;;;;;;1.20;1.10;;;;;;;;;;5101103;28;20266;-60
2022/08/23 14:48:11;;;;;;;1.30;1.20;;;;;;;;;;5100706;28;20206;-62
2022/08/23 14:50:39;;;;;;;1.95;1.10;;;;;;;;;;5100411;28;20642;-62
2022/08/23 14:53:08;;;;;;;1.48;0.95;;;;;;;;;;5100485;28;20673;-61
2022/08/23 14:55:37;;;;;;;2.28;1.17;;;;;;;;;;5100511;28;20263;-61
2022/08/23 14:58:06;;;;;;;4.68;2.42;;;;;;;;;;5100535;28;20586;-60
2022/08/23 15:00:35;;;;;;;2.05;0.85;;;;;;;;;;5100554;28;20220;-62
2022/08/23 15:03:04;;;;;;;2.03;1.08;;;;;;;;;;5100640;28;20205;-62
2022/08/23 15:05:36;;;;;;;1.50;1.00;;;;;;;;;;5100734;28;20216;-63
2022/08/23 15:08:04;;;;;;;0.90;0.90;;;;;;;;;;5100346;28;20240;-63
2022/08/23 15:10:32;;;;;;;1.40;1.05;;;;;;;;;;5099923;28;20658;-62
2022/08/23 15:13:18;;;;;;;1.83;1.08;;;;;;;;;;5107796;28;20227;-62
2022/08/23 15:15:59;;;;;;;1.83;1.08;;;;;;;;;;5121006;28;20236;-62